createdAt,value
2019-03-08T00:00:41.242Z,6.17
2019-03-08T00:03:10.047Z,6.67
2019-03-08T00:05:38.838Z,5.43
2019-03-08T00:08:07.667Z,3.90
2019-03-08T00:10:36.708Z,8.07
2019-03-08T00:13:05.520Z,5.70
2019-03-08T00:15:34.623Z,5.30
2019-03-08T00:18:03.419Z,8.27
2019-03-08T00:20:32.706Z,7.57
2019-03-08T00:23:01.467Z,5.03
2019-03-08T00:25:30.399Z,5.63
2019-03-08T00:27:59.221Z,6.30
2019-03-08T00:30:28.268Z,8.90
2019-03-08T00:32:57.014Z,4.70
2019-03-08T00:35:25.782Z,7.33
2019-03-08T00:37:54.604Z,6.07
2019-03-08T00:40:23.380Z,4.30
2019-03-08T00:42:52.109Z,5.57
2019-03-08T00:45:21.091Z,7.07
2019-03-08T00:47:49.846Z,4.47
2019-03-08T00:50:18.672Z,9.03
2019-03-08T00:52:47.505Z,6.43
2019-03-08T00:55:16.384Z,8.10
2019-03-08T00:57:45.200Z,3.30
2019-03-08T01:00:15.290Z,4.93
2019-03-08T01:02:44.050Z,5.97
2019-03-08T01:05:13.236Z,7.30
2019-03-08T01:07:42.087Z,4.80
2019-03-08T01:10:11.950Z,8.63
2019-03-08T01:12:41.327Z,4.67
2019-03-08T01:15:10.767Z,6.37
2019-03-08T01:17:39.519Z,6.63
2019-03-08T01:20:08.738Z,6.20
2019-03-08T01:22:37.475Z,8.53
2019-03-08T01:25:07.821Z,3.67
2019-03-08T01:27:36.757Z,4.07
2019-03-08T01:30:06.282Z,6.67
2019-03-08T01:32:35.066Z,6.37
2019-03-08T01:35:04.075Z,3.27
2019-03-08T01:37:32.934Z,4.13
2019-03-08T01:40:01.699Z,4.23
2019-03-08T01:42:30.592Z,5.40
2019-03-08T01:44:59.372Z,5.43
2019-03-08T01:47:28.240Z,5.93
2019-03-08T01:49:57.028Z,4.47
2019-03-08T01:52:32.226Z,6.73
2019-03-08T01:55:01.383Z,1.90
2019-03-08T01:57:30.222Z,1.67
2019-03-08T01:59:59.026Z,2.17
2019-03-08T02:02:27.813Z,3.17
2019-03-08T02:04:56.838Z,2.60
2019-03-08T02:07:25.709Z,1.87
2019-03-08T02:09:54.657Z,1.70
2019-03-08T02:12:23.410Z,1.77
2019-03-08T02:14:52.242Z,3.37
2019-03-08T02:17:21.011Z,3.03
2019-03-08T02:19:50.014Z,3.77
2019-03-08T02:22:18.766Z,3.30
2019-03-08T02:24:47.698Z,3.50
2019-03-08T02:27:16.448Z,3.30
2019-03-08T02:29:45.240Z,3.10
2019-03-08T02:32:14.066Z,4.00
2019-03-08T02:34:42.922Z,3.17
2019-03-08T02:37:11.679Z,5.90
2019-03-08T02:39:40.538Z,4.03
2019-03-08T02:42:09.325Z,4.57
2019-03-08T02:44:38.098Z,5.13
2019-03-08T02:47:06.914Z,4.97
2019-03-08T02:49:35.688Z,6.93
2019-03-08T02:52:04.625Z,5.87
2019-03-08T02:54:35.592Z,4.47
2019-03-08T02:57:04.384Z,7.20
2019-03-08T02:59:33.311Z,8.97
2019-03-08T03:02:02.115Z,10.50
2019-03-08T03:04:30.997Z,7.57
2019-03-08T03:07:00.155Z,9.53
2019-03-08T03:09:29.070Z,7.57
2019-03-08T03:11:57.814Z,5.20
2019-03-08T03:14:26.597Z,6.60
2019-03-08T03:16:56.171Z,7.83
2019-03-08T03:19:24.919Z,8.17
2019-03-08T03:21:53.639Z,6.60
2019-03-08T03:24:22.518Z,7.37
2019-03-08T03:26:51.324Z,7.23
2019-03-08T03:29:20.082Z,9.97
2019-03-08T03:31:48.894Z,8.03
2019-03-08T03:34:17.738Z,7.97
2019-03-08T03:36:46.479Z,7.43
2019-03-08T03:39:15.293Z,8.77
2019-03-08T03:41:44.065Z,7.97
2019-03-08T03:44:12.783Z,10.00
2019-03-08T03:46:41.579Z,8.67
2019-03-08T03:49:10.718Z,10.15
2019-03-08T03:51:39.589Z,8.20
2019-03-08T03:54:08.299Z,9.00
2019-03-08T03:56:37.067Z,11.20
2019-03-08T03:59:06.842Z,10.33
2019-03-08T04:01:39.958Z,7.93
2019-03-08T04:04:08.698Z,9.13
2019-03-08T04:06:37.467Z,13.10
2019-03-08T04:09:41.590Z,13.40
2019-03-08T04:12:10.342Z,7.93
2019-03-08T04:14:39.221Z,8.90
2019-03-08T04:17:08.007Z,13.30
2019-03-08T04:19:36.909Z,11.37
2019-03-08T04:22:05.694Z,10.03
2019-03-08T04:24:34.555Z,12.97
2019-03-08T04:27:03.311Z,9.50
2019-03-08T04:29:32.140Z,14.33
2019-03-08T04:32:01.034Z,11.57
2019-03-08T04:34:30.254Z,11.93
2019-03-08T04:36:59.018Z,16.50
2019-03-08T04:39:28.178Z,14.67
2019-03-08T04:41:56.949Z,14.50
2019-03-08T04:44:25.694Z,12.43
2019-03-08T04:46:54.621Z,13.53
2019-03-08T04:49:23.370Z,17.50
2019-03-08T04:51:54.210Z,12.23
2019-03-08T04:54:23.394Z,13.97
2019-03-08T04:56:52.113Z,10.03
2019-03-08T04:59:20.928Z,19.83
2019-03-08T05:01:49.905Z,13.97
2019-03-08T05:04:18.681Z,14.43
2019-03-08T05:06:47.465Z,18.03
2019-03-08T05:09:16.493Z,12.57
2019-03-08T05:11:45.342Z,14.00
2019-03-08T05:14:14.211Z,13.23
2019-03-08T05:16:42.967Z,14.17
2019-03-08T05:19:11.739Z,15.23
2019-03-08T05:21:40.507Z,18.97
2019-03-08T05:24:09.533Z,13.87
2019-03-08T05:26:38.389Z,16.13
2019-03-08T05:29:07.338Z,19.40
2019-03-08T05:31:36.127Z,19.00
2019-03-08T05:34:04.962Z,20.70
2019-03-08T05:36:33.688Z,22.20
2019-03-08T05:39:02.438Z,13.07
2019-03-08T05:41:31.250Z,10.00
2019-03-08T05:44:00.091Z,15.83
2019-03-08T05:46:28.914Z,10.90
2019-03-08T05:48:57.682Z,20.13
2019-03-08T05:51:26.514Z,17.20
2019-03-08T05:53:55.790Z,16.77
2019-03-08T05:56:24.583Z,18.70
2019-03-08T05:58:53.390Z,16.77
2019-03-08T06:01:22.322Z,17.23
2019-03-08T06:03:51.078Z,22.67
2019-03-08T06:06:19.876Z,22.00
2019-03-08T06:08:48.802Z,22.03
2019-03-08T06:11:17.713Z,19.70
2019-03-08T06:13:46.875Z,21.90
2019-03-08T06:16:15.664Z,19.57
2019-03-08T06:18:44.432Z,19.50
2019-03-08T06:21:13.206Z,21.10
2019-03-08T06:23:42.134Z,19.77
2019-03-08T06:26:11.643Z,17.33
2019-03-08T06:28:40.451Z,22.67
2019-03-08T06:31:09.312Z,22.67
2019-03-08T06:33:38.078Z,21.23
2019-03-08T06:36:06.974Z,19.97
2019-03-08T06:38:36.056Z,31.13
2019-03-08T06:41:04.801Z,25.53
2019-03-08T06:43:33.657Z,17.10
2019-03-08T06:46:02.420Z,24.13
2019-03-08T06:48:31.214Z,21.50
2019-03-08T06:50:59.976Z,20.30
2019-03-08T06:53:29.046Z,24.47
2019-03-08T06:55:57.876Z,23.67
2019-03-08T06:58:34.637Z,20.23
2019-03-08T07:01:09.011Z,22.73
2019-03-08T07:03:37.758Z,22.30
2019-03-08T07:06:06.830Z,18.80
2019-03-08T07:08:36.165Z,24.77
2019-03-08T07:11:05.019Z,26.33
2019-03-08T07:13:33.911Z,21.40
2019-03-08T07:16:02.678Z,22.20
2019-03-08T07:18:31.610Z,16.17
2019-03-08T07:21:15.393Z,20.13
2019-03-08T07:24:02.411Z,21.27
2019-03-08T07:26:56.657Z,15.33
2019-03-08T07:29:47.551Z,21.00
2019-03-08T07:32:26.052Z,24.47
2019-03-08T07:35:32.689Z,22.07
2019-03-08T07:38:24.782Z,19.50
2019-03-08T07:41:12.855Z,22.57
2019-03-08T07:43:59.638Z,21.87
2019-03-08T07:46:46.416Z,24.13
2019-03-08T07:49:27.572Z,27.97
2019-03-08T07:52:04.268Z,27.67
2019-03-08T07:54:52.635Z,25.57
2019-03-08T07:57:45.282Z,24.47
2019-03-08T08:00:33.474Z,29.03
2019-03-08T08:03:24.742Z,25.33
2019-03-08T08:06:15.894Z,25.50
2019-03-08T08:08:55.028Z,30.53
2019-03-08T08:11:54.842Z,16.30
2019-03-08T08:14:39.276Z,23.87
2019-03-08T08:17:15.694Z,23.47
2019-03-08T08:20:02.212Z,22.00
2019-03-08T08:22:56.209Z,30.53
2019-03-08T08:25:41.327Z,26.97
2019-03-08T08:28:31.963Z,21.70
2019-03-08T08:31:19.870Z,21.77
2019-03-08T08:33:59.441Z,19.43
2019-03-08T08:36:46.255Z,18.67
2019-03-08T08:39:21.724Z,21.90
2019-03-08T08:42:18.884Z,20.47
2019-03-08T08:45:18.968Z,17.90
2019-03-08T08:48:01.650Z,20.33
2019-03-08T08:50:48.235Z,22.10
2019-03-08T08:53:42.459Z,19.90
2019-03-08T08:56:37.785Z,23.57
2019-03-08T08:59:31.434Z,17.83
2019-03-08T09:02:25.299Z,21.53
2019-03-08T09:05:08.295Z,20.53
2019-03-08T09:07:51.390Z,15.93
2019-03-08T09:10:54.262Z,23.27
2019-03-08T09:13:45.527Z,16.27
2019-03-08T09:16:33.429Z,18.53
2019-03-08T09:19:10.169Z,12.17
2019-03-08T09:22:01.295Z,10.20
2019-03-08T09:24:52.039Z,18.57
2019-03-08T09:27:27.923Z,13.60
2019-03-08T09:30:34.270Z,16.33
2019-03-08T09:33:24.850Z,19.60
2019-03-08T09:36:01.824Z,19.23
2019-03-08T09:39:01.634Z,18.47
2019-03-08T09:41:48.650Z,14.77
2019-03-08T09:44:46.395Z,20.17
2019-03-08T09:47:40.658Z,18.20
2019-03-08T09:50:28.470Z,15.43
2019-03-08T09:53:14.514Z,23.30
2019-03-08T09:56:05.356Z,13.93
2019-03-08T09:58:40.882Z,17.07
2019-03-08T10:01:28.821Z,11.10
2019-03-08T10:04:22.769Z,21.07
2019-03-08T10:07:10.543Z,15.50
2019-03-08T10:09:58.354Z,15.50
2019-03-08T10:12:53.831Z,13.40
2019-03-08T10:15:34.263Z,14.20
2019-03-08T10:18:21.144Z,13.37
2019-03-08T10:21:27.052Z,11.23
2019-03-08T10:24:15.980Z,13.53
2019-03-08T10:27:01.946Z,16.90
2019-03-08T10:29:48.528Z,14.70
2019-03-08T10:32:36.996Z,16.73
2019-03-08T10:35:23.300Z,14.83
2019-03-08T10:38:03.645Z,18.73
2019-03-08T10:40:57.486Z,14.70
2019-03-08T10:43:45.338Z,15.77
2019-03-08T10:46:28.446Z,11.50
2019-03-08T10:49:16.533Z,11.40
2019-03-08T10:51:52.293Z,13.17
2019-03-08T10:54:40.099Z,10.73
2019-03-08T10:57:40.259Z,11.50
2019-03-08T11:00:28.545Z,11.73
2019-03-08T11:03:16.404Z,11.80
2019-03-08T11:06:00.875Z,8.20
2019-03-08T11:08:51.477Z,9.00
2019-03-08T11:11:57.356Z,14.70
2019-03-08T11:14:45.439Z,13.60
2019-03-08T11:17:31.991Z,13.67
2019-03-08T11:20:18.330Z,9.77
2019-03-08T11:23:05.098Z,12.43
2019-03-08T11:25:52.206Z,16.40
2019-03-08T11:28:38.727Z,16.37
2019-03-08T11:31:25.270Z,11.37
2019-03-08T11:34:25.750Z,13.97
2019-03-08T11:37:04.255Z,14.07
2019-03-08T11:39:52.355Z,7.87
2019-03-08T11:42:26.574Z,11.93
2019-03-08T11:45:09.194Z,12.40
2019-03-08T11:48:12.401Z,13.93
2019-03-08T11:51:18.582Z,11.13
2019-03-08T11:54:05.679Z,6.83
2019-03-08T11:56:46.177Z,5.53
2019-03-08T11:59:45.874Z,6.80
2019-03-08T12:02:38.026Z,3.13
2019-03-08T12:05:35.536Z,7.33
2019-03-08T12:08:19.274Z,7.10
2019-03-08T12:11:06.623Z,7.77
2019-03-08T12:13:56.823Z,6.47
2019-03-08T12:16:53.633Z,4.70
2019-03-08T12:19:38.778Z,7.53
2019-03-08T12:22:18.221Z,8.60
2019-03-08T12:24:58.433Z,11.50
2019-03-08T12:27:42.839Z,9.23
2019-03-08T12:30:26.972Z,9.37
2019-03-08T12:33:17.739Z,12.10
2019-03-08T12:36:04.294Z,13.90
2019-03-08T12:38:54.767Z,10.37
2019-03-08T12:41:45.522Z,8.20
2019-03-08T12:44:42.907Z,12.27
2019-03-08T12:47:29.514Z,9.93
2019-03-08T12:50:09.276Z,13.77
2019-03-08T12:52:48.415Z,10.83
2019-03-08T12:55:31.457Z,12.37
2019-03-08T12:58:37.578Z,10.03
2019-03-08T13:01:13.582Z,14.70
2019-03-08T13:04:17.117Z,11.43
2019-03-08T13:06:55.765Z,8.70
2019-03-08T13:09:37.190Z,14.03
2019-03-08T13:12:05.961Z,12.57
2019-03-08T13:14:34.883Z,10.30
2019-03-08T13:17:03.829Z,10.80
2019-03-08T13:19:32.723Z,12.20
2019-03-08T13:22:01.605Z,13.80
2019-03-08T13:24:31.306Z,13.23
2019-03-08T13:27:00.158Z,9.17
2019-03-08T13:29:29.074Z,12.77
2019-03-08T13:31:57.851Z,10.60
2019-03-08T13:34:27.031Z,14.00
2019-03-08T13:36:55.861Z,10.83
2019-03-08T13:39:24.714Z,5.90
2019-03-08T13:41:53.568Z,9.13
2019-03-08T13:44:22.835Z,8.80
2019-03-08T13:46:51.795Z,9.87
2019-03-08T13:49:20.910Z,9.43
2019-03-08T13:51:49.782Z,7.23
2019-03-08T13:54:18.631Z,8.53
2019-03-08T13:56:47.574Z,6.33
2019-03-08T13:59:16.486Z,7.50
2019-03-08T14:01:45.464Z,10.87
2019-03-08T14:04:14.483Z,5.47
2019-03-08T14:06:43.472Z,7.73
2019-03-08T14:09:13.226Z,7.57
2019-03-08T14:11:44.308Z,7.93
2019-03-08T14:14:13.475Z,6.47
2019-03-08T14:16:42.287Z,10.97
2019-03-08T14:19:11.132Z,7.90
2019-03-08T14:21:39.920Z,9.23
2019-03-08T14:24:08.722Z,11.07
2019-03-08T14:26:37.659Z,7.67
2019-03-08T14:29:06.569Z,9.93
2019-03-08T14:31:41.055Z,9.87
2019-03-08T14:34:10.745Z,7.20
2019-03-08T14:36:43.262Z,5.07
2019-03-08T14:39:11.223Z,7.90
2019-03-08T14:42:05.458Z,10.77
2019-03-08T14:45:03.589Z,9.57
2019-03-08T14:47:38.753Z,6.93
2019-03-08T14:50:08.708Z,8.40
2019-03-08T14:52:37.797Z,8.93
2019-03-08T14:55:07.659Z,11.70
2019-03-08T14:57:36.666Z,6.17
2019-03-08T15:00:07.888Z,7.43
2019-03-08T15:02:36.878Z,7.30
2019-03-08T15:05:11.285Z,9.07
2019-03-08T15:07:37.231Z,6.07
2019-03-08T15:10:07.635Z,6.93
2019-03-08T15:12:48.338Z,8.30
2019-03-08T15:15:11.384Z,5.10
2019-03-08T15:17:38.169Z,8.57
2019-03-08T15:20:14.896Z,10.60
2019-03-08T15:22:39.435Z,9.37
2019-03-08T15:25:12.701Z,6.60
2019-03-08T15:27:39.733Z,7.67
2019-03-08T15:30:10.041Z,8.37
2019-03-08T15:32:38.925Z,9.40
2019-03-08T15:35:08.344Z,8.10
2019-03-08T15:37:43.819Z,7.23
2019-03-08T15:40:09.414Z,5.63
2019-03-08T15:42:38.222Z,9.70
2019-03-08T15:45:07.405Z,6.23
2019-03-08T15:47:37.160Z,9.23
2019-03-08T15:50:08.456Z,9.57
2019-03-08T15:52:38.632Z,7.20
2019-03-08T15:55:07.636Z,6.87
2019-03-08T15:57:37.816Z,10.47
2019-03-08T16:00:08.665Z,8.10
2019-03-08T16:02:37.530Z,14.13
2019-03-08T16:05:06.484Z,10.20
2019-03-08T16:07:35.480Z,7.70
2019-03-08T16:10:04.521Z,6.90
2019-03-08T16:12:33.315Z,10.87
2019-03-08T16:15:02.354Z,6.53
2019-03-08T16:17:32.616Z,7.70
2019-03-08T16:20:06.244Z,5.97
2019-03-08T16:22:35.122Z,9.50
2019-03-08T16:25:06.633Z,6.07
2019-03-08T16:27:34.972Z,5.90
2019-03-08T16:30:09.528Z,7.13
2019-03-08T16:32:42.792Z,6.97
2019-03-08T16:35:11.452Z,6.43
2019-03-08T16:38:02.597Z,4.67
2019-03-08T16:40:48.309Z,3.53
2019-03-08T16:43:45.843Z,6.47
2019-03-08T16:46:26.784Z,6.93
2019-03-08T16:49:00.498Z,4.73
2019-03-08T16:51:42.688Z,6.63
2019-03-08T16:54:17.227Z,8.30
2019-03-08T16:57:00.614Z,5.73
2019-03-08T16:59:48.729Z,4.53
2019-03-08T17:02:36.837Z,6.03
2019-03-08T17:05:30.869Z,10.13
2019-03-08T17:08:10.808Z,5.27
2019-03-08T17:10:55.037Z,5.47
2019-03-08T17:13:43.886Z,6.20
2019-03-08T17:16:39.089Z,7.70
2019-03-08T17:19:26.579Z,9.90
2019-03-08T17:22:14.433Z,7.97
2019-03-08T17:25:05.692Z,7.77
2019-03-08T17:28:02.916Z,9.67
2019-03-08T17:30:40.570Z,8.63
2019-03-08T17:33:43.853Z,7.63
2019-03-08T17:36:40.562Z,7.77
2019-03-08T17:39:20.206Z,11.57
2019-03-08T17:42:23.279Z,10.40
2019-03-08T17:45:19.920Z,10.20
2019-03-08T17:48:10.947Z,7.13
2019-03-08T17:51:10.847Z,4.97
2019-03-08T17:54:01.631Z,9.97
2019-03-08T17:56:52.671Z,9.10
2019-03-08T17:59:43.239Z,7.87
2019-03-08T18:02:33.442Z,8.67
2019-03-08T18:05:10.548Z,9.10
2019-03-08T18:08:10.859Z,9.97
2019-03-08T18:11:05.003Z,12.03
2019-03-08T18:13:50.683Z,8.93
2019-03-08T18:16:31.042Z,18.57
2019-03-08T18:19:24.528Z,16.93
2019-03-08T18:22:27.761Z,8.90
2019-03-08T18:25:14.302Z,11.33
2019-03-08T18:28:01.320Z,23.13
2019-03-08T18:30:37.236Z,21.03
2019-03-08T18:33:28.120Z,11.07
2019-03-08T18:36:13.467Z,6.93
2019-03-08T18:38:58.334Z,6.97
2019-03-08T18:41:33.999Z,8.43
2019-03-08T18:44:20.899Z,11.77
2019-03-08T18:46:59.659Z,11.43
2019-03-08T18:49:53.415Z,7.23
2019-03-08T18:53:00.014Z,9.43
2019-03-08T18:55:40.587Z,7.87
2019-03-08T18:58:21.627Z,10.40
2019-03-08T19:01:09.671Z,14.83
2019-03-08T19:04:01.099Z,11.30
2019-03-08T19:06:49.027Z,9.87
2019-03-08T19:09:23.082Z,12.37
2019-03-08T19:12:17.375Z,10.73
2019-03-08T19:15:05.743Z,11.77
2019-03-08T19:17:57.434Z,8.97
2019-03-08T19:20:57.377Z,11.47
2019-03-08T19:23:32.188Z,10.43
2019-03-08T19:26:20.070Z,7.70
2019-03-08T19:29:04.034Z,10.77
2019-03-08T19:32:01.915Z,11.73
2019-03-08T19:34:49.893Z,8.37
2019-03-08T19:37:25.387Z,11.23
2019-03-08T19:40:19.546Z,10.70
2019-03-08T19:43:12.213Z,10.43
2019-03-08T19:45:51.202Z,10.20
2019-03-08T19:48:40.629Z,10.80
2019-03-08T19:51:26.217Z,10.73
2019-03-08T19:54:26.529Z,10.17
2019-03-08T19:57:24.006Z,7.90
2019-03-08T20:00:11.223Z,7.50
2019-03-08T20:02:47.817Z,8.83
2019-03-08T20:05:35.772Z,11.00
2019-03-08T20:08:22.465Z,8.90
2019-03-08T20:11:09.605Z,9.00
2019-03-08T20:14:12.759Z,11.53
2019-03-08T20:17:06.478Z,11.10
2019-03-08T20:19:57.256Z,12.33
2019-03-08T20:22:40.305Z,11.47
2019-03-08T20:25:40.883Z,9.60
2019-03-08T20:28:40.716Z,12.00
2019-03-08T20:31:41.067Z,9.00
2019-03-08T20:34:29.163Z,11.40
2019-03-08T20:37:16.776Z,16.20
2019-03-08T20:39:58.116Z,9.77
2019-03-08T20:42:44.756Z,9.90
2019-03-08T20:45:21.624Z,10.33
2019-03-08T20:47:50.501Z,11.03
2019-03-08T20:50:19.684Z,12.40
2019-03-08T20:52:48.776Z,12.53
2019-03-08T20:55:17.580Z,9.97
2019-03-08T20:57:46.468Z,7.90
2019-03-08T21:00:16.256Z,8.07
2019-03-08T21:02:45.107Z,8.33
2019-03-08T21:05:13.952Z,6.47
2019-03-08T21:07:42.782Z,6.27
2019-03-08T21:10:11.917Z,8.30
2019-03-08T21:12:40.782Z,6.93
2019-03-08T21:15:10.609Z,6.40
2019-03-08T21:17:39.669Z,8.07
2019-03-08T21:20:09.332Z,8.20
2019-03-08T21:22:39.671Z,7.17
2019-03-08T21:25:09.259Z,5.63
2019-03-08T21:27:38.165Z,4.77
2019-03-08T21:30:08.135Z,6.33
2019-03-08T21:32:37.084Z,7.53
2019-03-08T21:35:06.374Z,7.07
2019-03-08T21:37:35.215Z,8.13
2019-03-08T21:40:05.138Z,8.07
2019-03-08T21:42:33.984Z,7.43
2019-03-08T21:45:03.089Z,6.17
2019-03-08T21:47:31.933Z,10.37
2019-03-08T21:50:00.781Z,9.47
2019-03-08T21:52:30.249Z,9.03
2019-03-08T21:54:59.274Z,8.97
2019-03-08T21:57:28.149Z,8.27
2019-03-08T21:59:57.333Z,11.07
2019-03-08T22:02:26.283Z,9.43
2019-03-08T22:05:02.109Z,9.17
2019-03-08T22:07:31.073Z,10.53
2019-03-08T22:10:18.207Z,6.80
2019-03-08T22:12:47.046Z,15.57
2019-03-08T22:15:16.043Z,13.70
2019-03-08T22:17:44.819Z,13.17
2019-03-08T22:20:13.757Z,11.60
2019-03-08T22:22:42.587Z,10.80
2019-03-08T22:25:11.447Z,8.93
2019-03-08T22:27:40.632Z,11.13
2019-03-08T22:30:11.307Z,9.93
2019-03-08T22:32:40.219Z,9.90
2019-03-08T22:35:09.175Z,9.67
2019-03-08T22:37:38.187Z,10.00
2019-03-08T22:40:07.875Z,10.13
2019-03-08T22:42:36.888Z,11.43
2019-03-08T22:45:05.988Z,10.43
2019-03-08T22:47:37.061Z,13.77
2019-03-08T22:50:05.977Z,12.67
2019-03-08T22:52:35.311Z,14.50
2019-03-08T22:55:04.370Z,10.83
2019-03-08T22:57:33.519Z,19.30
2019-03-08T23:00:02.460Z,15.57
2019-03-08T23:02:34.571Z,11.43
2019-03-08T23:05:03.504Z,10.10
2019-03-08T23:07:32.324Z,10.47
2019-03-08T23:10:01.140Z,10.37
2019-03-08T23:12:30.057Z,11.63
2019-03-08T23:14:59.197Z,10.30
2019-03-08T23:17:28.012Z,8.57
2019-03-08T23:19:56.768Z,10.73
2019-03-08T23:22:25.602Z,13.13
2019-03-08T23:24:54.374Z,14.97
2019-03-08T23:27:31.115Z,9.07
2019-03-08T23:30:04.175Z,9.87
2019-03-08T23:32:36.483Z,9.63
2019-03-08T23:35:05.619Z,9.67
2019-03-08T23:37:34.516Z,9.37
2019-03-08T23:40:03.507Z,10.30
2019-03-08T23:42:32.328Z,9.07
2019-03-08T23:45:01.153Z,7.80
2019-03-08T23:47:29.971Z,10.23
2019-03-08T23:49:58.880Z,10.40
2019-03-08T23:52:27.733Z,9.17
2019-03-08T23:54:56.899Z,6.40
2019-03-08T23:57:25.857Z,9.03
2019-03-08T23:59:54.616Z,8.40
